<?xml version="1.0" encoding="UTF-8" standalone="no" ?>
<gpx xmlns="http://www.topografix.com/GPX/1/1" xmlns:xsi="http://www.w3.org/2001/XMLSchema-instance" xsi:schemaLocation="http://www.topografix.com/GPX/1/1 http://www.topografix.com/GPX/1/1/gpx.xsd" version="1.1" creator="VisuGPX - https://www.visugpx.com">
  <metadata>
    <name>Lacs d'Antarrouyes 2009 m</name>
    <desc><![CDATA[Beau lac d'altitude entre Luz Saint-Sauveur et Gavarnie]]></desc>
  </metadata>
  <trk>
    <name><![CDATA[Retour]]></name>
    <trkseg>
      <trkpt lat="42.79758" lon="-0.01716">
        <ele>1442.2</ele>
        <time>2012-08-24T13:18:05Z</time>
      </trkpt>
      <trkpt lat="42.79759" lon="-0.01716">
        <ele>1442.5</ele>
        <time>2012-08-24T13:15:26Z</time>
      </trkpt>
      <trkpt lat="42.79758" lon="-0.01715">
        <ele>1442.2</ele>
        <time>2012-08-24T13:15:08Z</time>
      </trkpt>
      <trkpt lat="42.79759" lon="-0.01718">
        <ele>1442.6</ele>
        <time>2012-08-24T13:14:54Z</time>
      </trkpt>
      <trkpt lat="42.79757" lon="-0.01718">
        <ele>1442.1</ele>
        <time>2012-08-24T13:14:39Z</time>
      </trkpt>
      <trkpt lat="42.79753" lon="-0.01712">
        <ele>1440.9</ele>
        <time>2012-08-24T13:14:35Z</time>
      </trkpt>
      <trkpt lat="42.79752" lon="-0.01705">
        <ele>1440.3</ele>
        <time>2012-08-24T13:14:31Z</time>
      </trkpt>
      <trkpt lat="42.79749" lon="-0.01697">
        <ele>1439.9</ele>
        <time>2012-08-24T13:14:25Z</time>
      </trkpt>
      <trkpt lat="42.7974" lon="-0.01689">
        <ele>1443.8</ele>
        <time>2012-08-24T13:14:17Z</time>
      </trkpt>
      <trkpt lat="42.79736" lon="-0.01684">
        <ele>1445.5</ele>
        <time>2012-08-24T13:14:12Z</time>
      </trkpt>
      <trkpt lat="42.7973" lon="-0.01678">
        <ele>1448.3</ele>
        <time>2012-08-24T13:14:06Z</time>
      </trkpt>
      <trkpt lat="42.79728" lon="-0.01677">
        <ele>1449.3</ele>
        <time>2012-08-24T13:14:04Z</time>
      </trkpt>
      <trkpt lat="42.79728" lon="-0.01673">
        <ele>1449.2</ele>
        <time>2012-08-24T13:14:01Z</time>
      </trkpt>
      <trkpt lat="42.79724" lon="-0.01664">
        <ele>1451.1</ele>
        <time>2012-08-24T13:13:53Z</time>
      </trkpt>
      <trkpt lat="42.7972" lon="-0.01657">
        <ele>1453.3</ele>
        <time>2012-08-24T13:13:47Z</time>
      </trkpt>
      <trkpt lat="42.79717" lon="-0.01649">
        <ele>1455</ele>
        <time>2012-08-24T13:13:40Z</time>
      </trkpt>
      <trkpt lat="42.79717" lon="-0.01644">
        <ele>1455.2</ele>
        <time>2012-08-24T13:13:34Z</time>
      </trkpt>
      <trkpt lat="42.79717" lon="-0.01646">
        <ele>1455.1</ele>
        <time>2012-08-24T13:13:32Z</time>
      </trkpt>
      <trkpt lat="42.79715" lon="-0.01655">
        <ele>1455.9</ele>
        <time>2012-08-24T13:13:20Z</time>
      </trkpt>
      <trkpt lat="42.79709" lon="-0.01659">
        <ele>1458.9</ele>
        <time>2012-08-24T13:13:15Z</time>
      </trkpt>
      <trkpt lat="42.79709" lon="-0.01662">
        <ele>1458.8</ele>
        <time>2012-08-24T13:13:13Z</time>
      </trkpt>
      <trkpt lat="42.79705" lon="-0.01671">
        <ele>1460.6</ele>
        <time>2012-08-24T13:13:07Z</time>
      </trkpt>
      <trkpt lat="42.797" lon="-0.01711">
        <ele>1462.1</ele>
        <time>2012-08-24T13:12:45Z</time>
      </trkpt>
      <trkpt lat="42.79699" lon="-0.01747">
        <ele>1461.7</ele>
        <time>2012-08-24T13:12:25Z</time>
      </trkpt>
      <trkpt lat="42.79695" lon="-0.01785">
        <ele>1465.4</ele>
        <time>2012-08-24T13:12:03Z</time>
      </trkpt>
      <trkpt lat="42.79687" lon="-0.01828">
        <ele>1471.1</ele>
        <time>2012-08-24T13:11:39Z</time>
      </trkpt>
      <trkpt lat="42.79675" lon="-0.01863">
        <ele>1473.5</ele>
        <time>2012-08-24T13:11:19Z</time>
      </trkpt>
      <trkpt lat="42.79659" lon="-0.01868">
        <ele>1481.5</ele>
        <time>2012-08-24T13:10:59Z</time>
      </trkpt>
      <trkpt lat="42.7966" lon="-0.01879">
        <ele>1479.7</ele>
        <time>2012-08-24T13:10:54Z</time>
      </trkpt>
      <trkpt lat="42.79658" lon="-0.01902">
        <ele>1479</ele>
        <time>2012-08-24T13:10:41Z</time>
      </trkpt>
      <trkpt lat="42.79648" lon="-0.01925">
        <ele>1485.2</ele>
        <time>2012-08-24T13:10:25Z</time>
      </trkpt>
      <trkpt lat="42.79642" lon="-0.01929">
        <ele>1489.5</ele>
        <time>2012-08-24T13:10:20Z</time>
      </trkpt>
      <trkpt lat="42.79636" lon="-0.01935">
        <ele>1493.7</ele>
        <time>2012-08-24T13:10:16Z</time>
      </trkpt>
      <trkpt lat="42.79628" lon="-0.01947">
        <ele>1498.7</ele>
        <time>2012-08-24T13:10:07Z</time>
      </trkpt>
      <trkpt lat="42.79624" lon="-0.01961">
        <ele>1500.5</ele>
        <time>2012-08-24T13:09:53Z</time>
      </trkpt>
      <trkpt lat="42.79621" lon="-0.01967">
        <ele>1502</ele>
        <time>2012-08-24T13:09:47Z</time>
      </trkpt>
      <trkpt lat="42.79619" lon="-0.01969">
        <ele>1503.1</ele>
        <time>2012-08-24T13:09:43Z</time>
      </trkpt>
      <trkpt lat="42.79611" lon="-0.01984">
        <ele>1506.7</ele>
        <time>2012-08-24T13:09:30Z</time>
      </trkpt>
      <trkpt lat="42.79604" lon="-0.01998">
        <ele>1509.3</ele>
        <time>2012-08-24T13:09:17Z</time>
      </trkpt>
      <trkpt lat="42.79601" lon="-0.02019">
        <ele>1510.6</ele>
        <time>2012-08-24T13:09:02Z</time>
      </trkpt>
      <trkpt lat="42.79591" lon="-0.02031">
        <ele>1515.8</ele>
        <time>2012-08-24T13:08:46Z</time>
      </trkpt>
      <trkpt lat="42.79589" lon="-0.02048">
        <ele>1516.4</ele>
        <time>2012-08-24T13:08:29Z</time>
      </trkpt>
      <trkpt lat="42.79591" lon="-0.02078">
        <ele>1514.6</ele>
        <time>2012-08-24T13:08:06Z</time>
      </trkpt>
      <trkpt lat="42.79579" lon="-0.02109">
        <ele>1519.1</ele>
        <time>2012-08-24T13:07:44Z</time>
      </trkpt>
      <trkpt lat="42.79571" lon="-0.02138">
        <ele>1521.9</ele>
        <time>2012-08-24T13:07:25Z</time>
      </trkpt>
      <trkpt lat="42.7956" lon="-0.02156">
        <ele>1527</ele>
        <time>2012-08-24T13:07:11Z</time>
      </trkpt>
      <trkpt lat="42.7956" lon="-0.02159">
        <ele>1526.7</ele>
        <time>2012-08-24T13:07:09Z</time>
      </trkpt>
      <trkpt lat="42.79562" lon="-0.02175">
        <ele>1525.4</ele>
        <time>2012-08-24T13:06:58Z</time>
      </trkpt>
      <trkpt lat="42.7956" lon="-0.02178">
        <ele>1526.6</ele>
        <time>2012-08-24T13:06:48Z</time>
      </trkpt>
      <trkpt lat="42.79554" lon="-0.02193">
        <ele>1530.6</ele>
        <time>2012-08-24T13:06:35Z</time>
      </trkpt>
      <trkpt lat="42.79552" lon="-0.02204">
        <ele>1532.2</ele>
        <time>2012-08-24T13:06:23Z</time>
      </trkpt>
      <trkpt lat="42.79549" lon="-0.0222">
        <ele>1534.5</ele>
        <time>2012-08-24T13:06:07Z</time>
      </trkpt>
      <trkpt lat="42.7955" lon="-0.02224">
        <ele>1534.1</ele>
        <time>2012-08-24T13:06:03Z</time>
      </trkpt>
      <trkpt lat="42.79548" lon="-0.02234">
        <ele>1535.7</ele>
        <time>2012-08-24T13:05:56Z</time>
      </trkpt>
      <trkpt lat="42.79548" lon="-0.02235">
        <ele>1535.7</ele>
        <time>2012-08-24T13:05:55Z</time>
      </trkpt>
      <trkpt lat="42.79548" lon="-0.02257">
        <ele>1536.5</ele>
        <time>2012-08-24T13:05:40Z</time>
      </trkpt>
      <trkpt lat="42.79548" lon="-0.02265">
        <ele>1536.6</ele>
        <time>2012-08-24T13:05:34Z</time>
      </trkpt>
      <trkpt lat="42.79548" lon="-0.02278">
        <ele>1536.8</ele>
        <time>2012-08-24T13:05:25Z</time>
      </trkpt>
      <trkpt lat="42.79546" lon="-0.02285">
        <ele>1538</ele>
        <time>2012-08-24T13:05:19Z</time>
      </trkpt>
      <trkpt lat="42.79544" lon="-0.02304">
        <ele>1539.4</ele>
        <time>2012-08-24T13:05:06Z</time>
      </trkpt>
      <trkpt lat="42.79537" lon="-0.02314">
        <ele>1543.3</ele>
        <time>2012-08-24T13:04:56Z</time>
      </trkpt>
      <trkpt lat="42.79536" lon="-0.02316">
        <ele>1543.8</ele>
        <time>2012-08-24T13:04:54Z</time>
      </trkpt>
      <trkpt lat="42.7953" lon="-0.02333">
        <ele>1547.2</ele>
        <time>2012-08-24T13:04:39Z</time>
      </trkpt>
      <trkpt lat="42.79528" lon="-0.02355">
        <ele>1550.7</ele>
        <time>2012-08-24T13:04:21Z</time>
      </trkpt>
      <trkpt lat="42.79528" lon="-0.0236">
        <ele>1551.3</ele>
        <time>2012-08-24T13:04:17Z</time>
      </trkpt>
      <trkpt lat="42.79528" lon="-0.02363">
        <ele>1551.6</ele>
        <time>2012-08-24T13:04:15Z</time>
      </trkpt>
      <trkpt lat="42.79532" lon="-0.02383">
        <ele>1551.6</ele>
        <time>2012-08-24T13:04:00Z</time>
      </trkpt>
      <trkpt lat="42.79532" lon="-0.02383">
        <ele>1551.6</ele>
        <time>2012-08-24T13:03:57Z</time>
      </trkpt>
      <trkpt lat="42.79537" lon="-0.02401">
        <ele>1550.4</ele>
        <time>2012-08-24T13:03:39Z</time>
      </trkpt>
      <trkpt lat="42.79538" lon="-0.0242">
        <ele>1551.8</ele>
        <time>2012-08-24T13:03:22Z</time>
      </trkpt>
      <trkpt lat="42.79547" lon="-0.02434">
        <ele>1547.4</ele>
        <time>2012-08-24T13:03:03Z</time>
      </trkpt>
      <trkpt lat="42.79549" lon="-0.02443">
        <ele>1547.1</ele>
        <time>2012-08-24T13:02:48Z</time>
      </trkpt>
      <trkpt lat="42.79553" lon="-0.02459">
        <ele>1546</ele>
        <time>2012-08-24T13:02:31Z</time>
      </trkpt>
      <trkpt lat="42.79559" lon="-0.0248">
        <ele>1543.9</ele>
        <time>2012-08-24T13:02:13Z</time>
      </trkpt>
      <trkpt lat="42.7956" lon="-0.02485">
        <ele>1543.6</ele>
        <time>2012-08-24T13:02:09Z</time>
      </trkpt>
      <trkpt lat="42.79562" lon="-0.02498">
        <ele>1543.4</ele>
        <time>2012-08-24T13:02:01Z</time>
      </trkpt>
      <trkpt lat="42.79565" lon="-0.02506">
        <ele>1542.5</ele>
        <time>2012-08-24T13:01:55Z</time>
      </trkpt>
      <trkpt lat="42.79565" lon="-0.02507">
        <ele>1542.6</ele>
        <time>2012-08-24T13:01:54Z</time>
      </trkpt>
      <trkpt lat="42.79571" lon="-0.02523">
        <ele>1541.2</ele>
        <time>2012-08-24T13:01:38Z</time>
      </trkpt>
      <trkpt lat="42.7957" lon="-0.02536">
        <ele>1544.2</ele>
        <time>2012-08-24T13:01:29Z</time>
      </trkpt>
      <trkpt lat="42.79567" lon="-0.02543">
        <ele>1547.5</ele>
        <time>2012-08-24T13:01:23Z</time>
      </trkpt>
      <trkpt lat="42.79566" lon="-0.02548">
        <ele>1549.1</ele>
        <time>2012-08-24T13:01:18Z</time>
      </trkpt>
      <trkpt lat="42.79576" lon="-0.02581">
        <ele>1548.3</ele>
        <time>2012-08-24T13:00:56Z</time>
      </trkpt>
      <trkpt lat="42.79579" lon="-0.0259">
        <ele>1548.6</ele>
        <time>2012-08-24T13:00:44Z</time>
      </trkpt>
      <trkpt lat="42.79582" lon="-0.02605">
        <ele>1550.8</ele>
        <time>2012-08-24T13:00:28Z</time>
      </trkpt>
      <trkpt lat="42.79589" lon="-0.02626">
        <ele>1553.1</ele>
        <time>2012-08-24T13:00:10Z</time>
      </trkpt>
      <trkpt lat="42.79598" lon="-0.02649">
        <ele>1554.7</ele>
        <time>2012-08-24T12:59:48Z</time>
      </trkpt>
      <trkpt lat="42.796" lon="-0.02662">
        <ele>1557</ele>
        <time>2012-08-24T12:59:40Z</time>
      </trkpt>
      <trkpt lat="42.79601" lon="-0.02667">
        <ele>1557.7</ele>
        <time>2012-08-24T12:59:37Z</time>
      </trkpt>
      <trkpt lat="42.796" lon="-0.02682">
        <ele>1558</ele>
        <time>2012-08-24T12:59:27Z</time>
      </trkpt>
      <trkpt lat="42.79598" lon="-0.02702">
        <ele>1558.6</ele>
        <time>2012-08-24T12:59:08Z</time>
      </trkpt>
      <trkpt lat="42.79596" lon="-0.02708">
        <ele>1559.3</ele>
        <time>2012-08-24T12:59:04Z</time>
      </trkpt>
      <trkpt lat="42.79588" lon="-0.02724">
        <ele>1561.8</ele>
        <time>2012-08-24T12:58:50Z</time>
      </trkpt>
      <trkpt lat="42.7958" lon="-0.02734">
        <ele>1564.9</ele>
        <time>2012-08-24T12:58:34Z</time>
      </trkpt>
      <trkpt lat="42.79579" lon="-0.02733">
        <ele>1565.5</ele>
        <time>2012-08-24T12:58:33Z</time>
      </trkpt>
      <trkpt lat="42.79573" lon="-0.02745">
        <ele>1568.3</ele>
        <time>2012-08-24T12:58:20Z</time>
      </trkpt>
      <trkpt lat="42.79568" lon="-0.02754">
        <ele>1571.6</ele>
        <time>2012-08-24T12:58:08Z</time>
      </trkpt>
      <trkpt lat="42.79571" lon="-0.02768">
        <ele>1572.5</ele>
        <time>2012-08-24T12:57:53Z</time>
      </trkpt>
      <trkpt lat="42.79577" lon="-0.02769">
        <ele>1569.6</ele>
        <time>2012-08-24T12:57:43Z</time>
      </trkpt>
      <trkpt lat="42.79599" lon="-0.02761">
        <ele>1560.1</ele>
        <time>2012-08-24T12:57:21Z</time>
      </trkpt>
      <trkpt lat="42.79601" lon="-0.02761">
        <ele>1559.6</ele>
        <time>2012-08-24T12:57:06Z</time>
      </trkpt>
      <trkpt lat="42.79615" lon="-0.02769">
        <ele>1558</ele>
        <time>2012-08-24T12:56:48Z</time>
      </trkpt>
      <trkpt lat="42.79624" lon="-0.02789">
        <ele>1561.7</ele>
        <time>2012-08-24T12:56:29Z</time>
      </trkpt>
      <trkpt lat="42.79625" lon="-0.02793">
        <ele>1562.7</ele>
        <time>2012-08-24T12:56:17Z</time>
      </trkpt>
      <trkpt lat="42.79632" lon="-0.028">
        <ele>1563.4</ele>
        <time>2012-08-24T12:55:58Z</time>
      </trkpt>
      <trkpt lat="42.79644" lon="-0.02818">
        <ele>1567</ele>
        <time>2012-08-24T12:55:40Z</time>
      </trkpt>
      <trkpt lat="42.79651" lon="-0.02833">
        <ele>1571.1</ele>
        <time>2012-08-24T12:55:23Z</time>
      </trkpt>
      <trkpt lat="42.79651" lon="-0.0285">
        <ele>1577.1</ele>
        <time>2012-08-24T12:55:07Z</time>
      </trkpt>
      <trkpt lat="42.79652" lon="-0.0286">
        <ele>1580.4</ele>
        <time>2012-08-24T12:54:59Z</time>
      </trkpt>
      <trkpt lat="42.79666" lon="-0.02869">
        <ele>1581.5</ele>
        <time>2012-08-24T12:54:40Z</time>
      </trkpt>
      <trkpt lat="42.79674" lon="-0.02877">
        <ele>1582</ele>
        <time>2012-08-24T12:54:30Z</time>
      </trkpt>
      <trkpt lat="42.79672" lon="-0.02881">
        <ele>1584</ele>
        <time>2012-08-24T12:54:25Z</time>
      </trkpt>
      <trkpt lat="42.79678" lon="-0.02893">
        <ele>1586.5</ele>
        <time>2012-08-24T12:54:07Z</time>
      </trkpt>
      <trkpt lat="42.79681" lon="-0.02897">
        <ele>1587.1</ele>
        <time>2012-08-24T12:53:44Z</time>
      </trkpt>
      <trkpt lat="42.79683" lon="-0.02909">
        <ele>1590.8</ele>
        <time>2012-08-24T12:53:31Z</time>
      </trkpt>
      <trkpt lat="42.79689" lon="-0.02918">
        <ele>1592.4</ele>
        <time>2012-08-24T12:53:20Z</time>
      </trkpt>
      <trkpt lat="42.79697" lon="-0.02929">
        <ele>1594.9</ele>
        <time>2012-08-24T12:53:08Z</time>
      </trkpt>
      <trkpt lat="42.79704" lon="-0.02939">
        <ele>1597.3</ele>
        <time>2012-08-24T12:52:58Z</time>
      </trkpt>
      <trkpt lat="42.79707" lon="-0.0294">
        <ele>1596.9</ele>
        <time>2012-08-24T12:52:55Z</time>
      </trkpt>
      <trkpt lat="42.7971" lon="-0.02943">
        <ele>1597.4</ele>
        <time>2012-08-24T12:52:52Z</time>
      </trkpt>
      <trkpt lat="42.79718" lon="-0.0295">
        <ele>1598.3</ele>
        <time>2012-08-24T12:52:43Z</time>
      </trkpt>
      <trkpt lat="42.79721" lon="-0.02953">
        <ele>1598.8</ele>
        <time>2012-08-24T12:52:39Z</time>
      </trkpt>
      <trkpt lat="42.79725" lon="-0.02958">
        <ele>1600</ele>
        <time>2012-08-24T12:52:33Z</time>
      </trkpt>
      <trkpt lat="42.79726" lon="-0.02961">
        <ele>1601</ele>
        <time>2012-08-24T12:52:30Z</time>
      </trkpt>
      <trkpt lat="42.79733" lon="-0.02968">
        <ele>1602.2</ele>
        <time>2012-08-24T12:52:22Z</time>
      </trkpt>
      <trkpt lat="42.79736" lon="-0.02972">
        <ele>1603.2</ele>
        <time>2012-08-24T12:52:18Z</time>
      </trkpt>
      <trkpt lat="42.79736" lon="-0.02973">
        <ele>1603.6</ele>
        <time>2012-08-24T12:52:17Z</time>
      </trkpt>
      <trkpt lat="42.79747" lon="-0.02982">
        <ele>1604.8</ele>
        <time>2012-08-24T12:51:56Z</time>
      </trkpt>
      <trkpt lat="42.79769" lon="-0.02988">
        <ele>1608.2</ele>
        <time>2012-08-24T12:51:34Z</time>
      </trkpt>
      <trkpt lat="42.79773" lon="-0.02991">
        <ele>1609.9</ele>
        <time>2012-08-24T12:51:28Z</time>
      </trkpt>
      <trkpt lat="42.79778" lon="-0.02994">
        <ele>1611.6</ele>
        <time>2012-08-24T12:51:16Z</time>
      </trkpt>
      <trkpt lat="42.79796" lon="-0.02996">
        <ele>1614</ele>
        <time>2012-08-24T12:51:00Z</time>
      </trkpt>
      <trkpt lat="42.79798" lon="-0.02997">
        <ele>1614.7</ele>
        <time>2012-08-24T12:50:58Z</time>
      </trkpt>
      <trkpt lat="42.79804" lon="-0.03">
        <ele>1616.5</ele>
        <time>2012-08-24T12:50:48Z</time>
      </trkpt>
      <trkpt lat="42.79812" lon="-0.02997">
        <ele>1615.8</ele>
        <time>2012-08-24T12:50:29Z</time>
      </trkpt>
      <trkpt lat="42.79813" lon="-0.02997">
        <ele>1615.9</ele>
        <time>2012-08-24T12:50:28Z</time>
      </trkpt>
      <trkpt lat="42.79825" lon="-0.03002">
        <ele>1619.2</ele>
        <time>2012-08-24T12:49:40Z</time>
      </trkpt>
      <trkpt lat="42.79836" lon="-0.03009">
        <ele>1623.2</ele>
        <time>2012-08-24T12:49:26Z</time>
      </trkpt>
      <trkpt lat="42.79848" lon="-0.03016">
        <ele>1627.3</ele>
        <time>2012-08-24T12:49:10Z</time>
      </trkpt>
      <trkpt lat="42.79858" lon="-0.03017">
        <ele>1628.6</ele>
        <time>2012-08-24T12:48:55Z</time>
      </trkpt>
      <trkpt lat="42.79859" lon="-0.03017">
        <ele>1628.7</ele>
        <time>2012-08-24T12:48:54Z</time>
      </trkpt>
      <trkpt lat="42.79863" lon="-0.03017">
        <ele>1629</ele>
        <time>2012-08-24T12:48:51Z</time>
      </trkpt>
      <trkpt lat="42.79864" lon="-0.03021">
        <ele>1630.8</ele>
        <time>2012-08-24T12:48:41Z</time>
      </trkpt>
      <trkpt lat="42.79865" lon="-0.03021">
        <ele>1630.9</ele>
        <time>2012-08-24T12:48:40Z</time>
      </trkpt>
      <trkpt lat="42.79868" lon="-0.03026">
        <ele>1633.2</ele>
        <time>2012-08-24T12:48:27Z</time>
      </trkpt>
      <trkpt lat="42.7987" lon="-0.03029">
        <ele>1634.6</ele>
        <time>2012-08-24T12:48:14Z</time>
      </trkpt>
      <trkpt lat="42.79874" lon="-0.0303">
        <ele>1635.3</ele>
        <time>2012-08-24T12:48:10Z</time>
      </trkpt>
      <trkpt lat="42.79874" lon="-0.0303">
        <ele>1635.3</ele>
        <time>2012-08-24T12:48:09Z</time>
      </trkpt>
      <trkpt lat="42.79881" lon="-0.03035">
        <ele>1637.9</ele>
        <time>2012-08-24T12:47:56Z</time>
      </trkpt>
      <trkpt lat="42.79888" lon="-0.03038">
        <ele>1639.6</ele>
        <time>2012-08-24T12:47:41Z</time>
      </trkpt>
      <trkpt lat="42.79892" lon="-0.03042">
        <ele>1641.5</ele>
        <time>2012-08-24T12:47:27Z</time>
      </trkpt>
      <trkpt lat="42.79899" lon="-0.03047">
        <ele>1643.9</ele>
        <time>2012-08-24T12:47:12Z</time>
      </trkpt>
      <trkpt lat="42.79903" lon="-0.03059">
        <ele>1648.9</ele>
        <time>2012-08-24T12:47:00Z</time>
      </trkpt>
      <trkpt lat="42.79904" lon="-0.03069">
        <ele>1652.9</ele>
        <time>2012-08-24T12:46:48Z</time>
      </trkpt>
      <trkpt lat="42.79906" lon="-0.03078">
        <ele>1656.5</ele>
        <time>2012-08-24T12:46:35Z</time>
      </trkpt>
      <trkpt lat="42.79912" lon="-0.03084">
        <ele>1659.2</ele>
        <time>2012-08-24T12:46:17Z</time>
      </trkpt>
      <trkpt lat="42.79922" lon="-0.03073">
        <ele>1656.4</ele>
        <time>2012-08-24T12:46:04Z</time>
      </trkpt>
      <trkpt lat="42.79926" lon="-0.03072">
        <ele>1657</ele>
        <time>2012-08-24T12:46:00Z</time>
      </trkpt>
      <trkpt lat="42.79937" lon="-0.03075">
        <ele>1660.9</ele>
        <time>2012-08-24T12:45:43Z</time>
      </trkpt>
      <trkpt lat="42.79942" lon="-0.03083">
        <ele>1665.3</ele>
        <time>2012-08-24T12:45:30Z</time>
      </trkpt>
      <trkpt lat="42.79948" lon="-0.03086">
        <ele>1668.3</ele>
        <time>2012-08-24T12:45:11Z</time>
      </trkpt>
      <trkpt lat="42.79954" lon="-0.03091">
        <ele>1672.5</ele>
        <time>2012-08-24T12:45:00Z</time>
      </trkpt>
      <trkpt lat="42.79958" lon="-0.03101">
        <ele>1678.5</ele>
        <time>2012-08-24T12:44:49Z</time>
      </trkpt>
      <trkpt lat="42.79959" lon="-0.03104">
        <ele>1680.3</ele>
        <time>2012-08-24T12:44:44Z</time>
      </trkpt>
      <trkpt lat="42.79962" lon="-0.03106">
        <ele>1681.9</ele>
        <time>2012-08-24T12:44:23Z</time>
      </trkpt>
      <trkpt lat="42.79966" lon="-0.03109">
        <ele>1684.2</ele>
        <time>2012-08-24T12:44:16Z</time>
      </trkpt>
      <trkpt lat="42.79975" lon="-0.0311">
        <ele>1686.3</ele>
        <time>2012-08-24T12:44:03Z</time>
      </trkpt>
      <trkpt lat="42.79977" lon="-0.0311">
        <ele>1686.7</ele>
        <time>2012-08-24T12:43:59Z</time>
      </trkpt>
      <trkpt lat="42.79978" lon="-0.03118">
        <ele>1690.6</ele>
        <time>2012-08-24T12:43:44Z</time>
      </trkpt>
      <trkpt lat="42.79982" lon="-0.0311">
        <ele>1687.6</ele>
        <time>2012-08-24T12:43:28Z</time>
      </trkpt>
      <trkpt lat="42.79988" lon="-0.0311">
        <ele>1688.7</ele>
        <time>2012-08-24T12:43:14Z</time>
      </trkpt>
      <trkpt lat="42.79988" lon="-0.03112">
        <ele>1689.6</ele>
        <time>2012-08-24T12:43:12Z</time>
      </trkpt>
      <trkpt lat="42.79998" lon="-0.03112">
        <ele>1691.3</ele>
        <time>2012-08-24T12:42:57Z</time>
      </trkpt>
      <trkpt lat="42.80009" lon="-0.03099">
        <ele>1687.4</ele>
        <time>2012-08-24T12:42:44Z</time>
      </trkpt>
      <trkpt lat="42.80011" lon="-0.03096">
        <ele>1686.5</ele>
        <time>2012-08-24T12:42:42Z</time>
      </trkpt>
      <trkpt lat="42.80013" lon="-0.03101">
        <ele>1688.7</ele>
        <time>2012-08-24T12:42:36Z</time>
      </trkpt>
      <trkpt lat="42.80012" lon="-0.03117">
        <ele>1694.9</ele>
        <time>2012-08-24T12:42:23Z</time>
      </trkpt>
      <trkpt lat="42.80011" lon="-0.03122">
        <ele>1696.7</ele>
        <time>2012-08-24T12:42:19Z</time>
      </trkpt>
      <trkpt lat="42.80012" lon="-0.03124">
        <ele>1697.6</ele>
        <time>2012-08-24T12:42:17Z</time>
      </trkpt>
      <trkpt lat="42.80024" lon="-0.03116">
        <ele>1695.6</ele>
        <time>2012-08-24T12:41:59Z</time>
      </trkpt>
      <trkpt lat="42.8003" lon="-0.03117">
        <ele>1696.5</ele>
        <time>2012-08-24T12:41:52Z</time>
      </trkpt>
      <trkpt lat="42.80036" lon="-0.03112">
        <ele>1695.3</ele>
        <time>2012-08-24T12:41:37Z</time>
      </trkpt>
      <trkpt lat="42.80046" lon="-0.031">
        <ele>1692</ele>
        <time>2012-08-24T12:41:22Z</time>
      </trkpt>
      <trkpt lat="42.8005" lon="-0.03094">
        <ele>1690.3</ele>
        <time>2012-08-24T12:41:16Z</time>
      </trkpt>
      <trkpt lat="42.80062" lon="-0.03091">
        <ele>1690.8</ele>
        <time>2012-08-24T12:41:01Z</time>
      </trkpt>
      <trkpt lat="42.80072" lon="-0.0309">
        <ele>1691.7</ele>
        <time>2012-08-24T12:40:51Z</time>
      </trkpt>
      <trkpt lat="42.80074" lon="-0.03091">
        <ele>1692.2</ele>
        <time>2012-08-24T12:40:48Z</time>
      </trkpt>
      <trkpt lat="42.80081" lon="-0.03094">
        <ele>1694</ele>
        <time>2012-08-24T12:40:36Z</time>
      </trkpt>
      <trkpt lat="42.80083" lon="-0.03101">
        <ele>1696.5</ele>
        <time>2012-08-24T12:40:24Z</time>
      </trkpt>
      <trkpt lat="42.80081" lon="-0.03109">
        <ele>1698.8</ele>
        <time>2012-08-24T12:40:12Z</time>
      </trkpt>
      <trkpt lat="42.80081" lon="-0.03117">
        <ele>1701.3</ele>
        <time>2012-08-24T12:40:00Z</time>
      </trkpt>
      <trkpt lat="42.80082" lon="-0.03127">
        <ele>1704.5</ele>
        <time>2012-08-24T12:39:44Z</time>
      </trkpt>
      <trkpt lat="42.80085" lon="-0.03135">
        <ele>1707.7</ele>
        <time>2012-08-24T12:39:33Z</time>
      </trkpt>
      <trkpt lat="42.80093" lon="-0.03138">
        <ele>1711.6</ele>
        <time>2012-08-24T12:39:20Z</time>
      </trkpt>
      <trkpt lat="42.80103" lon="-0.03149">
        <ele>1718.9</ele>
        <time>2012-08-24T12:39:06Z</time>
      </trkpt>
      <trkpt lat="42.80103" lon="-0.03174">
        <ele>1728.3</ele>
        <time>2012-08-24T12:38:51Z</time>
      </trkpt>
      <trkpt lat="42.80106" lon="-0.03198">
        <ele>1740.6</ele>
        <time>2012-08-24T12:38:38Z</time>
      </trkpt>
      <trkpt lat="42.80105" lon="-0.03201">
        <ele>1741.7</ele>
        <time>2012-08-24T12:38:36Z</time>
      </trkpt>
      <trkpt lat="42.80107" lon="-0.03208">
        <ele>1745.7</ele>
        <time>2012-08-24T12:38:31Z</time>
      </trkpt>
      <trkpt lat="42.80109" lon="-0.03214">
        <ele>1749.1</ele>
        <time>2012-08-24T12:38:26Z</time>
      </trkpt>
      <trkpt lat="42.80107" lon="-0.03224">
        <ele>1753.1</ele>
        <time>2012-08-24T12:38:09Z</time>
      </trkpt>
      <trkpt lat="42.80109" lon="-0.03233">
        <ele>1757.9</ele>
        <time>2012-08-24T12:37:59Z</time>
      </trkpt>
      <trkpt lat="42.80108" lon="-0.03235">
        <ele>1758.5</ele>
        <time>2012-08-24T12:37:56Z</time>
      </trkpt>
      <trkpt lat="42.80099" lon="-0.03243">
        <ele>1759.8</ele>
        <time>2012-08-24T12:37:43Z</time>
      </trkpt>
      <trkpt lat="42.80095" lon="-0.03248">
        <ele>1761.1</ele>
        <time>2012-08-24T12:37:38Z</time>
      </trkpt>
      <trkpt lat="42.80094" lon="-0.0325">
        <ele>1761.8</ele>
        <time>2012-08-24T12:37:36Z</time>
      </trkpt>
      <trkpt lat="42.80093" lon="-0.03251">
        <ele>1762.1</ele>
        <time>2012-08-24T12:37:35Z</time>
      </trkpt>
      <trkpt lat="42.80089" lon="-0.03267">
        <ele>1770</ele>
        <time>2012-08-24T12:37:22Z</time>
      </trkpt>
      <trkpt lat="42.80093" lon="-0.03268">
        <ele>1771.7</ele>
        <time>2012-08-24T12:37:17Z</time>
      </trkpt>
      <trkpt lat="42.80101" lon="-0.03272">
        <ele>1776.2</ele>
        <time>2012-08-24T12:37:03Z</time>
      </trkpt>
      <trkpt lat="42.80113" lon="-0.03281">
        <ele>1784.9</ele>
        <time>2012-08-24T12:36:48Z</time>
      </trkpt>
      <trkpt lat="42.80125" lon="-0.03286">
        <ele>1791.4</ele>
        <time>2012-08-24T12:36:32Z</time>
      </trkpt>
      <trkpt lat="42.80127" lon="-0.03287">
        <ele>1792.6</ele>
        <time>2012-08-24T12:36:29Z</time>
      </trkpt>
      <trkpt lat="42.8014" lon="-0.03293">
        <ele>1800.2</ele>
        <time>2012-08-24T12:36:17Z</time>
      </trkpt>
      <trkpt lat="42.80147" lon="-0.03296">
        <ele>1804.2</ele>
        <time>2012-08-24T12:36:11Z</time>
      </trkpt>
      <trkpt lat="42.80152" lon="-0.03298">
        <ele>1806.9</ele>
        <time>2012-08-24T12:36:06Z</time>
      </trkpt>
      <trkpt lat="42.80152" lon="-0.033">
        <ele>1808.2</ele>
        <time>2012-08-24T12:36:04Z</time>
      </trkpt>
      <trkpt lat="42.8015" lon="-0.03308">
        <ele>1812.5</ele>
        <time>2012-08-24T12:35:49Z</time>
      </trkpt>
      <trkpt lat="42.80152" lon="-0.03306">
        <ele>1811.9</ele>
        <time>2012-08-24T12:35:22Z</time>
      </trkpt>
      <trkpt lat="42.80153" lon="-0.03307">
        <ele>1812.9</ele>
        <time>2012-08-24T12:35:21Z</time>
      </trkpt>
      <trkpt lat="42.8015" lon="-0.03315">
        <ele>1816.8</ele>
        <time>2012-08-24T12:35:11Z</time>
      </trkpt>
      <trkpt lat="42.80149" lon="-0.03318">
        <ele>1818.4</ele>
        <time>2012-08-24T12:35:08Z</time>
      </trkpt>
      <trkpt lat="42.80156" lon="-0.03322">
        <ele>1823.2</ele>
        <time>2012-08-24T12:34:54Z</time>
      </trkpt>
      <trkpt lat="42.8016" lon="-0.03326">
        <ele>1827.1</ele>
        <time>2012-08-24T12:34:46Z</time>
      </trkpt>
      <trkpt lat="42.80161" lon="-0.03334">
        <ele>1832.3</ele>
        <time>2012-08-24T12:34:29Z</time>
      </trkpt>
      <trkpt lat="42.80157" lon="-0.03339">
        <ele>1833.1</ele>
        <time>2012-08-24T12:34:16Z</time>
      </trkpt>
      <trkpt lat="42.80162" lon="-0.03347">
        <ele>1838.2</ele>
        <time>2012-08-24T12:34:04Z</time>
      </trkpt>
      <trkpt lat="42.80164" lon="-0.03351">
        <ele>1840.6</ele>
        <time>2012-08-24T12:33:59Z</time>
      </trkpt>
      <trkpt lat="42.80161" lon="-0.03352">
        <ele>1840.1</ele>
        <time>2012-08-24T12:33:56Z</time>
      </trkpt>
      <trkpt lat="42.80162" lon="-0.03358">
        <ele>1842.9</ele>
        <time>2012-08-24T12:33:43Z</time>
      </trkpt>
      <trkpt lat="42.80174" lon="-0.03355">
        <ele>1845</ele>
        <time>2012-08-24T12:33:29Z</time>
      </trkpt>
      <trkpt lat="42.80182" lon="-0.03358">
        <ele>1848.3</ele>
        <time>2012-08-24T12:33:15Z</time>
      </trkpt>
      <trkpt lat="42.80189" lon="-0.03354">
        <ele>1848.4</ele>
        <time>2012-08-24T12:33:08Z</time>
      </trkpt>
      <trkpt lat="42.8019" lon="-0.03357">
        <ele>1849.9</ele>
        <time>2012-08-24T12:33:02Z</time>
      </trkpt>
      <trkpt lat="42.80178" lon="-0.03365">
        <ele>1850.2</ele>
        <time>2012-08-24T12:32:47Z</time>
      </trkpt>
      <trkpt lat="42.80175" lon="-0.03369">
        <ele>1851.1</ele>
        <time>2012-08-24T12:32:44Z</time>
      </trkpt>
      <trkpt lat="42.80175" lon="-0.03371">
        <ele>1851.9</ele>
        <time>2012-08-24T12:32:40Z</time>
      </trkpt>
      <trkpt lat="42.80161" lon="-0.03382">
        <ele>1852.9</ele>
        <time>2012-08-24T12:32:22Z</time>
      </trkpt>
      <trkpt lat="42.80161" lon="-0.03386">
        <ele>1854.7</ele>
        <time>2012-08-24T12:32:18Z</time>
      </trkpt>
      <trkpt lat="42.8015" lon="-0.03395">
        <ele>1855.9</ele>
        <time>2012-08-24T12:32:08Z</time>
      </trkpt>
      <trkpt lat="42.80144" lon="-0.034">
        <ele>1856.7</ele>
        <time>2012-08-24T12:31:59Z</time>
      </trkpt>
      <trkpt lat="42.80136" lon="-0.03409">
        <ele>1859.1</ele>
        <time>2012-08-24T12:31:50Z</time>
      </trkpt>
      <trkpt lat="42.80135" lon="-0.0341">
        <ele>1859.4</ele>
        <time>2012-08-24T12:31:49Z</time>
      </trkpt>
      <trkpt lat="42.80133" lon="-0.03415">
        <ele>1861.3</ele>
        <time>2012-08-24T12:31:39Z</time>
      </trkpt>
      <trkpt lat="42.80123" lon="-0.03426">
        <ele>1865.6</ele>
        <time>2012-08-24T12:31:22Z</time>
      </trkpt>
      <trkpt lat="42.80112" lon="-0.03435">
        <ele>1869.5</ele>
        <time>2012-08-24T12:31:05Z</time>
      </trkpt>
      <trkpt lat="42.80109" lon="-0.03435">
        <ele>1869.1</ele>
        <time>2012-08-24T12:31:01Z</time>
      </trkpt>
      <trkpt lat="42.8011" lon="-0.03445">
        <ele>1875.7</ele>
        <time>2012-08-24T12:30:47Z</time>
      </trkpt>
      <trkpt lat="42.80108" lon="-0.03451">
        <ele>1879.4</ele>
        <time>2012-08-24T12:30:33Z</time>
      </trkpt>
      <trkpt lat="42.8011" lon="-0.03455">
        <ele>1882.1</ele>
        <time>2012-08-24T12:30:17Z</time>
      </trkpt>
      <trkpt lat="42.80099" lon="-0.03459">
        <ele>1884.2</ele>
        <time>2012-08-24T12:29:58Z</time>
      </trkpt>
      <trkpt lat="42.8009" lon="-0.03462">
        <ele>1886</ele>
        <time>2012-08-24T12:29:40Z</time>
      </trkpt>
      <trkpt lat="42.80073" lon="-0.03474">
        <ele>1887.5</ele>
        <time>2012-08-24T12:29:21Z</time>
      </trkpt>
      <trkpt lat="42.80059" lon="-0.03479">
        <ele>1881</ele>
        <time>2012-08-24T12:29:05Z</time>
      </trkpt>
      <trkpt lat="42.80041" lon="-0.03479">
        <ele>1868.2</ele>
        <time>2012-08-24T12:28:45Z</time>
      </trkpt>
      <trkpt lat="42.80044" lon="-0.03487">
        <ele>1874.9</ele>
        <time>2012-08-24T12:28:33Z</time>
      </trkpt>
      <trkpt lat="42.80049" lon="-0.03488">
        <ele>1879.2</ele>
        <time>2012-08-24T12:28:28Z</time>
      </trkpt>
      <trkpt lat="42.8005" lon="-0.0349">
        <ele>1881.2</ele>
        <time>2012-08-24T12:28:26Z</time>
      </trkpt>
      <trkpt lat="42.80063" lon="-0.03501">
        <ele>1898.7</ele>
        <time>2012-08-24T12:28:09Z</time>
      </trkpt>
      <trkpt lat="42.80064" lon="-0.03502">
        <ele>1900.5</ele>
        <time>2012-08-24T12:28:08Z</time>
      </trkpt>
      <trkpt lat="42.80073" lon="-0.03507">
        <ele>1911.8</ele>
        <time>2012-08-24T12:27:57Z</time>
      </trkpt>
      <trkpt lat="42.80082" lon="-0.03512">
        <ele>1921.6</ele>
        <time>2012-08-24T12:27:48Z</time>
      </trkpt>
      <trkpt lat="42.80085" lon="-0.03514">
        <ele>1923.6</ele>
        <time>2012-08-24T12:27:45Z</time>
      </trkpt>
      <trkpt lat="42.8009" lon="-0.03515">
        <ele>1923.9</ele>
        <time>2012-08-24T12:27:40Z</time>
      </trkpt>
      <trkpt lat="42.8009" lon="-0.03515">
        <ele>1923.9</ele>
        <time>2012-08-24T12:27:39Z</time>
      </trkpt>
      <trkpt lat="42.80097" lon="-0.03516">
        <ele>1924</ele>
        <time>2012-08-24T12:27:31Z</time>
      </trkpt>
      <trkpt lat="42.80107" lon="-0.03518">
        <ele>1924.6</ele>
        <time>2012-08-24T12:27:20Z</time>
      </trkpt>
      <trkpt lat="42.80111" lon="-0.03521">
        <ele>1926.5</ele>
        <time>2012-08-24T12:27:15Z</time>
      </trkpt>
      <trkpt lat="42.80114" lon="-0.03525">
        <ele>1929.3</ele>
        <time>2012-08-24T12:27:04Z</time>
      </trkpt>
      <trkpt lat="42.8013" lon="-0.0352">
        <ele>1924.4</ele>
        <time>2012-08-24T12:26:46Z</time>
      </trkpt>
      <trkpt lat="42.80132" lon="-0.0352">
        <ele>1924.2</ele>
        <time>2012-08-24T12:26:44Z</time>
      </trkpt>
      <trkpt lat="42.80137" lon="-0.03525">
        <ele>1927.7</ele>
        <time>2012-08-24T12:26:28Z</time>
      </trkpt>
      <trkpt lat="42.80141" lon="-0.0353">
        <ele>1931.4</ele>
        <time>2012-08-24T12:26:17Z</time>
      </trkpt>
      <trkpt lat="42.80144" lon="-0.03531">
        <ele>1932</ele>
        <time>2012-08-24T12:26:10Z</time>
      </trkpt>
      <trkpt lat="42.80148" lon="-0.03527">
        <ele>1928.6</ele>
        <time>2012-08-24T12:25:57Z</time>
      </trkpt>
      <trkpt lat="42.80154" lon="-0.03525">
        <ele>1926.6</ele>
        <time>2012-08-24T12:25:49Z</time>
      </trkpt>
      <trkpt lat="42.80168" lon="-0.03517">
        <ele>1919.5</ele>
        <time>2012-08-24T12:25:31Z</time>
      </trkpt>
      <trkpt lat="42.80173" lon="-0.03512">
        <ele>1916.9</ele>
        <time>2012-08-24T12:25:26Z</time>
      </trkpt>
      <trkpt lat="42.80177" lon="-0.03509">
        <ele>1915.7</ele>
        <time>2012-08-24T12:25:18Z</time>
      </trkpt>
      <trkpt lat="42.80183" lon="-0.03506">
        <ele>1915</ele>
        <time>2012-08-24T12:25:06Z</time>
      </trkpt>
      <trkpt lat="42.80184" lon="-0.03505">
        <ele>1914.4</ele>
        <time>2012-08-24T12:25:05Z</time>
      </trkpt>
      <trkpt lat="42.80187" lon="-0.03496">
        <ele>1909.3</ele>
        <time>2012-08-24T12:24:48Z</time>
      </trkpt>
      <trkpt lat="42.80187" lon="-0.03496">
        <ele>1909.3</ele>
        <time>2012-08-24T12:24:16Z</time>
      </trkpt>
      <trkpt lat="42.80187" lon="-0.03496">
        <ele>1909.3</ele>
        <time>2012-08-24T12:23:35Z</time>
      </trkpt>
      <trkpt lat="42.80195" lon="-0.03487">
        <ele>1907.6</ele>
        <time>2012-08-24T12:23:19Z</time>
      </trkpt>
      <trkpt lat="42.80204" lon="-0.0347">
        <ele>1902.4</ele>
        <time>2012-08-24T12:23:01Z</time>
      </trkpt>
      <trkpt lat="42.80208" lon="-0.03467">
        <ele>1902.2</ele>
        <time>2012-08-24T12:22:54Z</time>
      </trkpt>
      <trkpt lat="42.80207" lon="-0.03466">
        <ele>1901.4</ele>
        <time>2012-08-24T12:22:53Z</time>
      </trkpt>
      <trkpt lat="42.80214" lon="-0.03458">
        <ele>1899.6</ele>
        <time>2012-08-24T12:22:42Z</time>
      </trkpt>
      <trkpt lat="42.80224" lon="-0.03436">
        <ele>1891.9</ele>
        <time>2012-08-24T12:22:23Z</time>
      </trkpt>
      <trkpt lat="42.80239" lon="-0.03427">
        <ele>1891.4</ele>
        <time>2012-08-24T12:22:04Z</time>
      </trkpt>
      <trkpt lat="42.80245" lon="-0.03428">
        <ele>1893.3</ele>
        <time>2012-08-24T12:21:46Z</time>
      </trkpt>
      <trkpt lat="42.80254" lon="-0.03432">
        <ele>1898.2</ele>
        <time>2012-08-24T12:21:35Z</time>
      </trkpt>
      <trkpt lat="42.80265" lon="-0.03438">
        <ele>1905.7</ele>
        <time>2012-08-24T12:21:20Z</time>
      </trkpt>
      <trkpt lat="42.80275" lon="-0.03437">
        <ele>1909.4</ele>
        <time>2012-08-24T12:21:08Z</time>
      </trkpt>
      <trkpt lat="42.80282" lon="-0.03435">
        <ele>1911.2</ele>
        <time>2012-08-24T12:21:00Z</time>
      </trkpt>
      <trkpt lat="42.80294" lon="-0.03429">
        <ele>1913.2</ele>
        <time>2012-08-24T12:20:43Z</time>
      </trkpt>
      <trkpt lat="42.80303" lon="-0.03425">
        <ele>1914.9</ele>
        <time>2012-08-24T12:20:33Z</time>
      </trkpt>
      <trkpt lat="42.80315" lon="-0.03417">
        <ele>1915.7</ele>
        <time>2012-08-24T12:20:17Z</time>
      </trkpt>
      <trkpt lat="42.80319" lon="-0.03417">
        <ele>1917.3</ele>
        <time>2012-08-24T12:20:10Z</time>
      </trkpt>
      <trkpt lat="42.80322" lon="-0.03417">
        <ele>1918.5</ele>
        <time>2012-08-24T12:20:07Z</time>
      </trkpt>
      <trkpt lat="42.80337" lon="-0.03416">
        <ele>1923.8</ele>
        <time>2012-08-24T12:19:48Z</time>
      </trkpt>
      <trkpt lat="42.80344" lon="-0.03406">
        <ele>1920.7</ele>
        <time>2012-08-24T12:19:29Z</time>
      </trkpt>
      <trkpt lat="42.80353" lon="-0.03389">
        <ele>1914.5</ele>
        <time>2012-08-24T12:19:12Z</time>
      </trkpt>
      <trkpt lat="42.80366" lon="-0.03369">
        <ele>1907.4</ele>
        <time>2012-08-24T12:18:51Z</time>
      </trkpt>
      <trkpt lat="42.80377" lon="-0.03351">
        <ele>1900.5</ele>
        <time>2012-08-24T12:18:30Z</time>
      </trkpt>
      <trkpt lat="42.80386" lon="-0.03345">
        <ele>1899.4</ele>
        <time>2012-08-24T12:18:14Z</time>
      </trkpt>
      <trkpt lat="42.80402" lon="-0.03338">
        <ele>1899.3</ele>
        <time>2012-08-24T12:17:58Z</time>
      </trkpt>
      <trkpt lat="42.80422" lon="-0.03333">
        <ele>1900.2</ele>
        <time>2012-08-24T12:17:40Z</time>
      </trkpt>
      <trkpt lat="42.80427" lon="-0.03333">
        <ele>1900.6</ele>
        <time>2012-08-24T12:17:35Z</time>
      </trkpt>
      <trkpt lat="42.80431" lon="-0.03335">
        <ele>1902</ele>
        <time>2012-08-24T12:17:31Z</time>
      </trkpt>
      <trkpt lat="42.80432" lon="-0.03336">
        <ele>1902.6</ele>
        <time>2012-08-24T12:17:29Z</time>
      </trkpt>
      <trkpt lat="42.80446" lon="-0.0334">
        <ele>1905.7</ele>
        <time>2012-08-24T12:17:14Z</time>
      </trkpt>
      <trkpt lat="42.8045" lon="-0.03338">
        <ele>1904.9</ele>
        <time>2012-08-24T12:17:08Z</time>
      </trkpt>
      <trkpt lat="42.80454" lon="-0.03337">
        <ele>1904.6</ele>
        <time>2012-08-24T12:16:59Z</time>
      </trkpt>
      <trkpt lat="42.80457" lon="-0.03336">
        <ele>1904.3</ele>
        <time>2012-08-24T12:16:56Z</time>
      </trkpt>
      <trkpt lat="42.80459" lon="-0.03334">
        <ele>1903.4</ele>
        <time>2012-08-24T12:16:53Z</time>
      </trkpt>
      <trkpt lat="42.80465" lon="-0.03325">
        <ele>1900.2</ele>
        <time>2012-08-24T12:16:45Z</time>
      </trkpt>
      <trkpt lat="42.80478" lon="-0.0332">
        <ele>1899.3</ele>
        <time>2012-08-24T12:16:34Z</time>
      </trkpt>
      <trkpt lat="42.80486" lon="-0.03319">
        <ele>1899.6</ele>
        <time>2012-08-24T12:16:27Z</time>
      </trkpt>
      <trkpt lat="42.80491" lon="-0.03322">
        <ele>1901.2</ele>
        <time>2012-08-24T12:16:23Z</time>
      </trkpt>
      <trkpt lat="42.80496" lon="-0.03327">
        <ele>1903.4</ele>
        <time>2012-08-24T12:16:11Z</time>
      </trkpt>
      <trkpt lat="42.80505" lon="-0.03329">
        <ele>1905.7</ele>
        <time>2012-08-24T12:15:59Z</time>
      </trkpt>
      <trkpt lat="42.80504" lon="-0.03329">
        <ele>1905.5</ele>
        <time>2012-08-24T12:15:57Z</time>
      </trkpt>
      <trkpt lat="42.80505" lon="-0.03331">
        <ele>1906.4</ele>
        <time>2012-08-24T12:15:54Z</time>
      </trkpt>
      <trkpt lat="42.80509" lon="-0.03331">
        <ele>1907.5</ele>
        <time>2012-08-24T12:15:49Z</time>
      </trkpt>
      <trkpt lat="42.8052" lon="-0.03336">
        <ele>1912</ele>
        <time>2012-08-24T12:15:38Z</time>
      </trkpt>
      <trkpt lat="42.8053" lon="-0.03339">
        <ele>1915.5</ele>
        <time>2012-08-24T12:15:28Z</time>
      </trkpt>
      <trkpt lat="42.80531" lon="-0.03338">
        <ele>1915.4</ele>
        <time>2012-08-24T12:15:26Z</time>
      </trkpt>
      <trkpt lat="42.80536" lon="-0.03334">
        <ele>1915.3</ele>
        <time>2012-08-24T12:15:14Z</time>
      </trkpt>
      <trkpt lat="42.80536" lon="-0.03335">
        <ele>1915.6</ele>
        <time>2012-08-24T12:15:00Z</time>
      </trkpt>
      <trkpt lat="42.80538" lon="-0.03335">
        <ele>1916.1</ele>
        <time>2012-08-24T12:14:58Z</time>
      </trkpt>
      <trkpt lat="42.80547" lon="-0.03327">
        <ele>1916.2</ele>
        <time>2012-08-24T12:14:46Z</time>
      </trkpt>
      <trkpt lat="42.80548" lon="-0.0333">
        <ele>1917.3</ele>
        <time>2012-08-24T12:14:43Z</time>
      </trkpt>
      <trkpt lat="42.80547" lon="-0.03334">
        <ele>1918</ele>
        <time>2012-08-24T12:14:39Z</time>
      </trkpt>
      <trkpt lat="42.8055" lon="-0.0334">
        <ele>1920.3</ele>
        <time>2012-08-24T12:14:29Z</time>
      </trkpt>
      <trkpt lat="42.80545" lon="-0.03349">
        <ele>1921.6</ele>
        <time>2012-08-24T12:14:20Z</time>
      </trkpt>
      <trkpt lat="42.80541" lon="-0.03354">
        <ele>1922.3</ele>
        <time>2012-08-24T12:14:14Z</time>
      </trkpt>
      <trkpt lat="42.80541" lon="-0.03357">
        <ele>1923.2</ele>
        <time>2012-08-24T12:14:08Z</time>
      </trkpt>
      <trkpt lat="42.80544" lon="-0.03357">
        <ele>1923.7</ele>
        <time>2012-08-24T12:14:05Z</time>
      </trkpt>
      <trkpt lat="42.80544" lon="-0.03357">
        <ele>1923.7</ele>
        <time>2012-08-24T12:14:04Z</time>
      </trkpt>
      <trkpt lat="42.8055" lon="-0.03365">
        <ele>1926.7</ele>
        <time>2012-08-24T12:13:51Z</time>
      </trkpt>
      <trkpt lat="42.80555" lon="-0.03372">
        <ele>1928.9</ele>
        <time>2012-08-24T12:13:36Z</time>
      </trkpt>
      <trkpt lat="42.80561" lon="-0.03384">
        <ele>1932</ele>
        <time>2012-08-24T12:13:17Z</time>
      </trkpt>
      <trkpt lat="42.80571" lon="-0.03399">
        <ele>1935</ele>
        <time>2012-08-24T12:13:01Z</time>
      </trkpt>
      <trkpt lat="42.80571" lon="-0.03403">
        <ele>1935.7</ele>
        <time>2012-08-24T12:12:57Z</time>
      </trkpt>
      <trkpt lat="42.80574" lon="-0.03418">
        <ele>1938.1</ele>
        <time>2012-08-24T12:12:38Z</time>
      </trkpt>
      <trkpt lat="42.80576" lon="-0.03438">
        <ele>1942.8</ele>
        <time>2012-08-24T12:12:22Z</time>
      </trkpt>
      <trkpt lat="42.80576" lon="-0.03448">
        <ele>1945.3</ele>
        <time>2012-08-24T12:12:15Z</time>
      </trkpt>
      <trkpt lat="42.80574" lon="-0.03456">
        <ele>1947.9</ele>
        <time>2012-08-24T12:11:25Z</time>
      </trkpt>
      <trkpt lat="42.80584" lon="-0.03457">
        <ele>1945.6</ele>
        <time>2012-08-24T12:11:09Z</time>
      </trkpt>
      <trkpt lat="42.80588" lon="-0.03455">
        <ele>1947.4</ele>
        <time>2012-08-24T12:11:05Z</time>
      </trkpt>
      <trkpt lat="42.8059" lon="-0.03462">
        <ele>1949.9</ele>
        <time>2012-08-24T12:10:58Z</time>
      </trkpt>
      <trkpt lat="42.80598" lon="-0.03475">
        <ele>1956.4</ele>
        <time>2012-08-24T12:10:43Z</time>
      </trkpt>
      <trkpt lat="42.80599" lon="-0.03484">
        <ele>1958.5</ele>
        <time>2012-08-24T12:10:37Z</time>
      </trkpt>
      <trkpt lat="42.80598" lon="-0.03497">
        <ele>1960.2</ele>
        <time>2012-08-24T12:10:15Z</time>
      </trkpt>
      <trkpt lat="42.80598" lon="-0.03501">
        <ele>1960.8</ele>
        <time>2012-08-24T12:10:01Z</time>
      </trkpt>
      <trkpt lat="42.80598" lon="-0.03504">
        <ele>1961.2</ele>
        <time>2012-08-24T12:09:58Z</time>
      </trkpt>
      <trkpt lat="42.80602" lon="-0.03505">
        <ele>1963.1</ele>
        <time>2012-08-24T12:09:36Z</time>
      </trkpt>
      <trkpt lat="42.80605" lon="-0.03518">
        <ele>1965.9</ele>
        <time>2012-08-24T12:09:20Z</time>
      </trkpt>
      <trkpt lat="42.80612" lon="-0.03541">
        <ele>1971.1</ele>
        <time>2012-08-24T12:08:58Z</time>
      </trkpt>
      <trkpt lat="42.80616" lon="-0.0355">
        <ele>1973.3</ele>
        <time>2012-08-24T12:08:50Z</time>
      </trkpt>
      <trkpt lat="42.80618" lon="-0.03555">
        <ele>1974.4</ele>
        <time>2012-08-24T12:08:47Z</time>
      </trkpt>
      <trkpt lat="42.80616" lon="-0.03573">
        <ele>1975.3</ele>
        <time>2012-08-24T12:08:32Z</time>
      </trkpt>
      <trkpt lat="42.80616" lon="-0.03583">
        <ele>1976.2</ele>
        <time>2012-08-24T12:08:22Z</time>
      </trkpt>
      <trkpt lat="42.80616" lon="-0.03587">
        <ele>1976.3</ele>
        <time>2012-08-24T12:08:18Z</time>
      </trkpt>
      <trkpt lat="42.80615" lon="-0.03589">
        <ele>1976.2</ele>
        <time>2012-08-24T12:08:15Z</time>
      </trkpt>
      <trkpt lat="42.80611" lon="-0.03598">
        <ele>1975.4</ele>
        <time>2012-08-24T12:08:05Z</time>
      </trkpt>
      <trkpt lat="42.80615" lon="-0.0361">
        <ele>1976.8</ele>
        <time>2012-08-24T12:07:52Z</time>
      </trkpt>
      <trkpt lat="42.80614" lon="-0.03614">
        <ele>1976.7</ele>
        <time>2012-08-24T12:07:49Z</time>
      </trkpt>
      <trkpt lat="42.8061" lon="-0.03631">
        <ele>1976.3</ele>
        <time>2012-08-24T12:07:32Z</time>
      </trkpt>
      <trkpt lat="42.80609" lon="-0.03643">
        <ele>1976.4</ele>
        <time>2012-08-24T12:07:22Z</time>
      </trkpt>
      <trkpt lat="42.80607" lon="-0.03655">
        <ele>1976.3</ele>
        <time>2012-08-24T12:07:15Z</time>
      </trkpt>
      <trkpt lat="42.80608" lon="-0.03667">
        <ele>1976.9</ele>
        <time>2012-08-24T12:07:07Z</time>
      </trkpt>
      <trkpt lat="42.80606" lon="-0.03701">
        <ele>1976</ele>
        <time>2012-08-24T12:06:45Z</time>
      </trkpt>
      <trkpt lat="42.80604" lon="-0.03706">
        <ele>1975.4</ele>
        <time>2012-08-24T12:06:42Z</time>
      </trkpt>
      <trkpt lat="42.80603" lon="-0.0371">
        <ele>1975</ele>
        <time>2012-08-24T12:06:40Z</time>
      </trkpt>
      <trkpt lat="42.80603" lon="-0.03711">
        <ele>1975</ele>
        <time>2012-08-24T12:06:39Z</time>
      </trkpt>
      <trkpt lat="42.80604" lon="-0.03733">
        <ele>1975</ele>
        <time>2012-08-24T12:06:22Z</time>
      </trkpt>
      <trkpt lat="42.80604" lon="-0.03739">
        <ele>1974.9</ele>
        <time>2012-08-24T12:06:17Z</time>
      </trkpt>
      <trkpt lat="42.80607" lon="-0.03747">
        <ele>1975.6</ele>
        <time>2012-08-24T12:06:12Z</time>
      </trkpt>
      <trkpt lat="42.80607" lon="-0.03751">
        <ele>1975.6</ele>
        <time>2012-08-24T12:06:09Z</time>
      </trkpt>
      <trkpt lat="42.80606" lon="-0.03754">
        <ele>1975.6</ele>
        <time>2012-08-24T12:06:07Z</time>
      </trkpt>
      <trkpt lat="42.80607" lon="-0.0377">
        <ele>1977.4</ele>
        <time>2012-08-24T12:05:56Z</time>
      </trkpt>
      <trkpt lat="42.80609" lon="-0.03773">
        <ele>1978.2</ele>
        <time>2012-08-24T12:05:54Z</time>
      </trkpt>
      <trkpt lat="42.80612" lon="-0.03787">
        <ele>1980.1</ele>
        <time>2012-08-24T12:05:41Z</time>
      </trkpt>
      <trkpt lat="42.80615" lon="-0.03791">
        <ele>1981.2</ele>
        <time>2012-08-24T12:05:38Z</time>
      </trkpt>
      <trkpt lat="42.80611" lon="-0.03807">
        <ele>1981.7</ele>
        <time>2012-08-24T12:05:27Z</time>
      </trkpt>
      <trkpt lat="42.80613" lon="-0.03815">
        <ele>1982.8</ele>
        <time>2012-08-24T12:05:20Z</time>
      </trkpt>
      <trkpt lat="42.80611" lon="-0.03827">
        <ele>1983.4</ele>
        <time>2012-08-24T12:05:10Z</time>
      </trkpt>
      <trkpt lat="42.80613" lon="-0.03832">
        <ele>1984.2</ele>
        <time>2012-08-24T12:05:02Z</time>
      </trkpt>
      <trkpt lat="42.80613" lon="-0.03834">
        <ele>1984.3</ele>
        <time>2012-08-24T12:04:59Z</time>
      </trkpt>
      <trkpt lat="42.80615" lon="-0.03857">
        <ele>1982.8</ele>
        <time>2012-08-24T12:04:41Z</time>
      </trkpt>
      <trkpt lat="42.80614" lon="-0.03868">
        <ele>1981.7</ele>
        <time>2012-08-24T12:04:24Z</time>
      </trkpt>
      <trkpt lat="42.80613" lon="-0.03872">
        <ele>1981.1</ele>
        <time>2012-08-24T12:04:21Z</time>
      </trkpt>
      <trkpt lat="42.80614" lon="-0.03877">
        <ele>1980.9</ele>
        <time>2012-08-24T12:03:32Z</time>
      </trkpt>
      <trkpt lat="42.80615" lon="-0.03886">
        <ele>1980.4</ele>
        <time>2012-08-24T12:03:16Z</time>
      </trkpt>
      <trkpt lat="42.80615" lon="-0.03887">
        <ele>1980.3</ele>
        <time>2012-08-24T12:03:14Z</time>
      </trkpt>
      <trkpt lat="42.80613" lon="-0.03899">
        <ele>1978.9</ele>
        <time>2012-08-24T12:02:55Z</time>
      </trkpt>
      <trkpt lat="42.80612" lon="-0.0391">
        <ele>1977.7</ele>
        <time>2012-08-24T12:02:39Z</time>
      </trkpt>
      <trkpt lat="42.80611" lon="-0.03916">
        <ele>1977</ele>
        <time>2012-08-24T12:02:35Z</time>
      </trkpt>
      <trkpt lat="42.80608" lon="-0.03925">
        <ele>1975.6</ele>
        <time>2012-08-24T12:02:28Z</time>
      </trkpt>
      <trkpt lat="42.80609" lon="-0.0393">
        <ele>1975.3</ele>
        <time>2012-08-24T12:02:24Z</time>
      </trkpt>
      <trkpt lat="42.80611" lon="-0.03935">
        <ele>1975.3</ele>
        <time>2012-08-24T12:02:20Z</time>
      </trkpt>
      <trkpt lat="42.80618" lon="-0.03959">
        <ele>1974.3</ele>
        <time>2012-08-24T12:02:01Z</time>
      </trkpt>
      <trkpt lat="42.8062" lon="-0.03965">
        <ele>1974</ele>
        <time>2012-08-24T12:01:55Z</time>
      </trkpt>
      <trkpt lat="42.80626" lon="-0.03971">
        <ele>1974.3</ele>
        <time>2012-08-24T12:01:49Z</time>
      </trkpt>
      <trkpt lat="42.80631" lon="-0.03971">
        <ele>1975.1</ele>
        <time>2012-08-24T12:01:44Z</time>
      </trkpt>
      <trkpt lat="42.80639" lon="-0.03965">
        <ele>1977</ele>
        <time>2012-08-24T12:01:24Z</time>
      </trkpt>
      <trkpt lat="42.80651" lon="-0.03967">
        <ele>1978.7</ele>
        <time>2012-08-24T12:01:13Z</time>
      </trkpt>
      <trkpt lat="42.80659" lon="-0.03967">
        <ele>1979.9</ele>
        <time>2012-08-24T12:01:01Z</time>
      </trkpt>
      <trkpt lat="42.80673" lon="-0.03971">
        <ele>1982.4</ele>
        <time>2012-08-24T12:00:45Z</time>
      </trkpt>
      <trkpt lat="42.8068" lon="-0.0397">
        <ele>1984.6</ele>
        <time>2012-08-24T12:00:38Z</time>
      </trkpt>
      <trkpt lat="42.80688" lon="-0.03968">
        <ele>1987.2</ele>
        <time>2012-08-24T12:00:31Z</time>
      </trkpt>
      <trkpt lat="42.80689" lon="-0.03966">
        <ele>1987.8</ele>
        <time>2012-08-24T12:00:27Z</time>
      </trkpt>
      <trkpt lat="42.80697" lon="-0.03944">
        <ele>1992.4</ele>
        <time>2012-08-24T12:00:09Z</time>
      </trkpt>
      <trkpt lat="42.80705" lon="-0.03929">
        <ele>1995.7</ele>
        <time>2012-08-24T11:59:56Z</time>
      </trkpt>
      <trkpt lat="42.80711" lon="-0.03914">
        <ele>1998.2</ele>
        <time>2012-08-24T11:59:36Z</time>
      </trkpt>
      <trkpt lat="42.80717" lon="-0.03904">
        <ele>2000.1</ele>
        <time>2012-08-24T11:59:19Z</time>
      </trkpt>
      <trkpt lat="42.80719" lon="-0.03902">
        <ele>2000.7</ele>
        <time>2012-08-24T11:59:15Z</time>
      </trkpt>
      <trkpt lat="42.80723" lon="-0.03892">
        <ele>2002.2</ele>
        <time>2012-08-24T11:58:58Z</time>
      </trkpt>
      <trkpt lat="42.8073" lon="-0.03867">
        <ele>2005.4</ele>
        <time>2012-08-24T11:58:38Z</time>
      </trkpt>
      <trkpt lat="42.80732" lon="-0.03865">
        <ele>2005.9</ele>
        <time>2012-08-24T11:58:36Z</time>
      </trkpt>
      <trkpt lat="42.80734" lon="-0.03859">
        <ele>2006.8</ele>
        <time>2012-08-24T11:58:30Z</time>
      </trkpt>
      <trkpt lat="42.80741" lon="-0.03854">
        <ele>2008.6</ele>
        <time>2012-08-24T11:58:21Z</time>
      </trkpt>
      <trkpt lat="42.80742" lon="-0.03854">
        <ele>2008.8</ele>
        <time>2012-08-24T11:58:20Z</time>
      </trkpt>
      <trkpt lat="42.80749" lon="-0.03847">
        <ele>2010.8</ele>
        <time>2012-08-24T11:58:09Z</time>
      </trkpt>
      <trkpt lat="42.80748" lon="-0.03841">
        <ele>2011</ele>
        <time>2012-08-24T11:57:54Z</time>
      </trkpt>
      <trkpt lat="42.80748" lon="-0.03813">
        <ele>2014.2</ele>
        <time>2012-08-24T11:57:34Z</time>
      </trkpt>
      <trkpt lat="42.80748" lon="-0.03791">
        <ele>2017</ele>
        <time>2012-08-24T11:57:19Z</time>
      </trkpt>
      <trkpt lat="42.80747" lon="-0.03783">
        <ele>2017.7</ele>
        <time>2012-08-24T11:57:14Z</time>
      </trkpt>
      <trkpt lat="42.80744" lon="-0.03772">
        <ele>2018.1</ele>
        <time>2012-08-24T11:57:05Z</time>
      </trkpt>
      <trkpt lat="42.80742" lon="-0.03761">
        <ele>2018.7</ele>
        <time>2012-08-24T11:56:57Z</time>
      </trkpt>
      <trkpt lat="42.80739" lon="-0.03746">
        <ele>2019.5</ele>
        <time>2012-08-24T11:56:46Z</time>
      </trkpt>
      <trkpt lat="42.80733" lon="-0.0373">
        <ele>2019.3</ele>
        <time>2012-08-24T11:56:32Z</time>
      </trkpt>
      <trkpt lat="42.80732" lon="-0.03721">
        <ele>2020</ele>
        <time>2012-08-24T11:55:41Z</time>
      </trkpt>
      <trkpt lat="42.80731" lon="-0.0372">
        <ele>2019.7</ele>
        <time>2012-08-24T11:55:37Z</time>
      </trkpt>
      <trkpt lat="42.80732" lon="-0.0371">
        <ele>2021.5</ele>
        <time>2012-08-24T11:55:28Z</time>
      </trkpt>
      <trkpt lat="42.80733" lon="-0.03699">
        <ele>2023.4</ele>
        <time>2012-08-24T11:55:10Z</time>
      </trkpt>
      <trkpt lat="42.80734" lon="-0.03682">
        <ele>2026.1</ele>
        <time>2012-08-24T11:54:52Z</time>
      </trkpt>
      <trkpt lat="42.80731" lon="-0.03676">
        <ele>2025.3</ele>
        <time>2012-08-24T11:54:37Z</time>
      </trkpt>
      <trkpt lat="42.80727" lon="-0.0366">
        <ele>2024.5</ele>
        <time>2012-08-24T11:54:21Z</time>
      </trkpt>
      <trkpt lat="42.80725" lon="-0.03639">
        <ele>2023.9</ele>
        <time>2012-08-24T11:54:03Z</time>
      </trkpt>
      <trkpt lat="42.80723" lon="-0.03632">
        <ele>2023</ele>
        <time>2012-08-24T11:53:58Z</time>
      </trkpt>
      <trkpt lat="42.80722" lon="-0.03618">
        <ele>2022.7</ele>
        <time>2012-08-24T11:53:49Z</time>
      </trkpt>
      <trkpt lat="42.80718" lon="-0.03597">
        <ele>2020.8</ele>
        <time>2012-08-24T11:53:31Z</time>
      </trkpt>
      <trkpt lat="42.80718" lon="-0.03596">
        <ele>2020.8</ele>
        <time>2012-08-24T11:53:30Z</time>
      </trkpt>
      <trkpt lat="42.80724" lon="-0.03578">
        <ele>2025.1</ele>
        <time>2012-08-24T11:53:13Z</time>
      </trkpt>
      <trkpt lat="42.80725" lon="-0.03568">
        <ele>2026.5</ele>
        <time>2012-08-24T11:52:51Z</time>
      </trkpt>
      <trkpt lat="42.80724" lon="-0.03558">
        <ele>2026.5</ele>
        <time>2012-08-24T11:52:35Z</time>
      </trkpt>
      <trkpt lat="42.8072" lon="-0.03545">
        <ele>2024.8</ele>
        <time>2012-08-24T11:52:19Z</time>
      </trkpt>
      <trkpt lat="42.80719" lon="-0.03527">
        <ele>2025.4</ele>
        <time>2012-08-24T11:52:02Z</time>
      </trkpt>
      <trkpt lat="42.80716" lon="-0.03515">
        <ele>2024.2</ele>
        <time>2012-08-24T11:51:47Z</time>
      </trkpt>
      <trkpt lat="42.80709" lon="-0.03506">
        <ele>2020.1</ele>
        <time>2012-08-24T11:51:33Z</time>
      </trkpt>
      <trkpt lat="42.80707" lon="-0.03502">
        <ele>2019</ele>
        <time>2012-08-24T11:51:17Z</time>
      </trkpt>
      <trkpt lat="42.80704" lon="-0.03493">
        <ele>2017.1</ele>
        <time>2012-08-24T11:50:57Z</time>
      </trkpt>
      <trkpt lat="42.80703" lon="-0.0348">
        <ele>2016.4</ele>
        <time>2012-08-24T11:50:41Z</time>
      </trkpt>
      <trkpt lat="42.80702" lon="-0.03467">
        <ele>2015.7</ele>
        <time>2012-08-24T11:50:24Z</time>
      </trkpt>
      <trkpt lat="42.80699" lon="-0.03453">
        <ele>2013.6</ele>
        <time>2012-08-24T11:50:02Z</time>
      </trkpt>
      <trkpt lat="42.80699" lon="-0.03451">
        <ele>2013.6</ele>
        <time>2012-08-24T11:49:49Z</time>
      </trkpt>
      <trkpt lat="42.80696" lon="-0.03438">
        <ele>2011.5</ele>
        <time>2012-08-24T11:49:25Z</time>
      </trkpt>
      <trkpt lat="42.80691" lon="-0.03423">
        <ele>2008</ele>
        <time>2012-08-24T11:48:53Z</time>
      </trkpt>
      <trkpt lat="42.80691" lon="-0.03417">
        <ele>2007.9</ele>
        <time>2012-08-24T11:48:33Z</time>
      </trkpt>
      <trkpt lat="42.80692" lon="-0.03413">
        <ele>2008.5</ele>
        <time>2012-08-24T11:48:26Z</time>
      </trkpt>
      <trkpt lat="42.80692" lon="-0.03403">
        <ele>2008.2</ele>
        <time>2012-08-24T11:48:09Z</time>
      </trkpt>
      <trkpt lat="42.80693" lon="-0.03399">
        <ele>2008.7</ele>
        <time>2012-08-24T11:47:48Z</time>
      </trkpt>
      <trkpt lat="42.80691" lon="-0.03391">
        <ele>2007.1</ele>
        <time>2012-08-24T11:47:33Z</time>
      </trkpt>
      <trkpt lat="42.80692" lon="-0.03388">
        <ele>2007.7</ele>
        <time>2012-08-24T11:47:28Z</time>
      </trkpt>
      <trkpt lat="42.80691" lon="-0.03385">
        <ele>2006.9</ele>
        <time>2012-08-24T11:47:12Z</time>
      </trkpt>
      <trkpt lat="42.80691" lon="-0.03385">
        <ele>2006.9</ele>
        <time>2012-08-24T11:47:09Z</time>
      </trkpt>
      <trkpt lat="42.80688" lon="-0.03384">
        <ele>2004.9</ele>
        <time>2012-08-24T11:47:05Z</time>
      </trkpt>
      <trkpt lat="42.80688" lon="-0.03383">
        <ele>2004.8</ele>
        <time>2012-08-24T11:47:04Z</time>
      </trkpt>
      <trkpt lat="42.80688" lon="-0.03378">
        <ele>2004.7</ele>
        <time>2012-08-24T11:46:58Z</time>
      </trkpt>
      <trkpt lat="42.80688" lon="-0.03376">
        <ele>2004.6</ele>
        <time>2012-08-24T11:46:55Z</time>
      </trkpt>
      <trkpt lat="42.80688" lon="-0.03375">
        <ele>2004.6</ele>
        <time>2012-08-24T11:46:53Z</time>
      </trkpt>
      <trkpt lat="42.80687" lon="-0.03374">
        <ele>2003.9</ele>
        <time>2012-08-24T11:46:52Z</time>
      </trkpt>
      <trkpt lat="42.80687" lon="-0.03373">
        <ele>2003.9</ele>
        <time>2012-08-24T11:46:51Z</time>
      </trkpt>
      <trkpt lat="42.80687" lon="-0.03371">
        <ele>2003.8</ele>
        <time>2012-08-24T11:46:50Z</time>
      </trkpt>
      <trkpt lat="42.80686" lon="-0.03364">
        <ele>2002.9</ele>
        <time>2012-08-24T11:46:42Z</time>
      </trkpt>
      <trkpt lat="42.80685" lon="-0.03363">
        <ele>2002.3</ele>
        <time>2012-08-24T11:46:39Z</time>
      </trkpt>
      <trkpt lat="42.80684" lon="-0.03359">
        <ele>2001.5</ele>
        <time>2012-08-24T11:46:32Z</time>
      </trkpt>
      <trkpt lat="42.80683" lon="-0.03352">
        <ele>2000.7</ele>
        <time>2012-08-24T11:46:27Z</time>
      </trkpt>
      <trkpt lat="42.80686" lon="-0.03343">
        <ele>2002.3</ele>
        <time>2012-08-24T11:46:12Z</time>
      </trkpt>
      <trkpt lat="42.80687" lon="-0.03331">
        <ele>2002.2</ele>
        <time>2012-08-24T11:46:02Z</time>
      </trkpt>
      <trkpt lat="42.80687" lon="-0.0333">
        <ele>2001.9</ele>
        <time>2012-08-24T11:46:01Z</time>
      </trkpt>
      <trkpt lat="42.80689" lon="-0.03321">
        <ele>2001.1</ele>
        <time>2012-08-24T11:45:44Z</time>
      </trkpt>
      <trkpt lat="42.8069" lon="-0.0331">
        <ele>1999.2</ele>
        <time>2012-08-24T11:45:26Z</time>
      </trkpt>
      <trkpt lat="42.80691" lon="-0.03303">
        <ele>1998.1</ele>
        <time>2012-08-24T11:44:58Z</time>
      </trkpt>
      <trkpt lat="42.8069" lon="-0.03296">
        <ele>1996</ele>
        <time>2012-08-24T11:44:36Z</time>
      </trkpt>
      <trkpt lat="42.8069" lon="-0.03296">
        <ele>1996</ele>
        <time>2012-08-24T11:44:27Z</time>
      </trkpt>
      <trkpt lat="42.80692" lon="-0.03285">
        <ele>1994.5</ele>
        <time>2012-08-24T11:44:08Z</time>
      </trkpt>
      <trkpt lat="42.80691" lon="-0.03279">
        <ele>1992.5</ele>
        <time>2012-08-24T11:43:50Z</time>
      </trkpt>
      <trkpt lat="42.80693" lon="-0.03263">
        <ele>1989.8</ele>
        <time>2012-08-24T11:43:31Z</time>
      </trkpt>
      <trkpt lat="42.80696" lon="-0.03256">
        <ele>1989.5</ele>
        <time>2012-08-24T11:43:18Z</time>
      </trkpt>
      <trkpt lat="42.80697" lon="-0.03248">
        <ele>1988.4</ele>
        <time>2012-08-24T11:43:04Z</time>
      </trkpt>
      <trkpt lat="42.80699" lon="-0.03242">
        <ele>1989.1</ele>
        <time>2012-08-24T11:42:43Z</time>
      </trkpt>
      <trkpt lat="42.80699" lon="-0.03239">
        <ele>1989</ele>
        <time>2012-08-24T11:42:24Z</time>
      </trkpt>
      <trkpt lat="42.80704" lon="-0.03234">
        <ele>1990.9</ele>
        <time>2012-08-24T11:42:15Z</time>
      </trkpt>
      <trkpt lat="42.80705" lon="-0.03232">
        <ele>1991.2</ele>
        <time>2012-08-24T11:42:11Z</time>
      </trkpt>
      <trkpt lat="42.80706" lon="-0.03232">
        <ele>1991.6</ele>
        <time>2012-08-24T11:42:06Z</time>
      </trkpt>
      <trkpt lat="42.80712" lon="-0.03231">
        <ele>1994</ele>
        <time>2012-08-24T11:41:54Z</time>
      </trkpt>
      <trkpt lat="42.80712" lon="-0.03231">
        <ele>1994</ele>
        <time>2012-08-24T11:41:28Z</time>
      </trkpt>
      <trkpt lat="42.80712" lon="-0.03231">
        <ele>1994</ele>
        <time>2012-08-24T11:40:43Z</time>
      </trkpt>
      <trkpt lat="42.80717" lon="-0.0323">
        <ele>1995.9</ele>
        <time>2012-08-24T11:40:29Z</time>
      </trkpt>
      <trkpt lat="42.80719" lon="-0.03228">
        <ele>1996.5</ele>
        <time>2012-08-24T11:40:24Z</time>
      </trkpt>
      <trkpt lat="42.80721" lon="-0.03223">
        <ele>1996.9</ele>
        <time>2012-08-24T11:40:20Z</time>
      </trkpt>
      <trkpt lat="42.80722" lon="-0.03219">
        <ele>1997</ele>
        <time>2012-08-24T11:40:17Z</time>
      </trkpt>
      <trkpt lat="42.80722" lon="-0.03219">
        <ele>1997</ele>
        <time>2012-08-24T11:40:16Z</time>
      </trkpt>
      <trkpt lat="42.80723" lon="-0.03219">
        <ele>1997.4</ele>
        <time>2012-08-24T11:39:56Z</time>
      </trkpt>
      <trkpt lat="42.80723" lon="-0.03218">
        <ele>1997.3</ele>
        <time>2012-08-24T11:39:54Z</time>
      </trkpt>
      <trkpt lat="42.80723" lon="-0.03217">
        <ele>1997.2</ele>
        <time>2012-08-24T11:39:51Z</time>
      </trkpt>
      <trkpt lat="42.80722" lon="-0.03217">
        <ele>1996.8</ele>
        <time>2012-08-24T11:39:49Z</time>
      </trkpt>
      <trkpt lat="42.80723" lon="-0.03211">
        <ele>1996.7</ele>
        <time>2012-08-24T11:39:22Z</time>
      </trkpt>
      <trkpt lat="42.80725" lon="-0.03208">
        <ele>1997.1</ele>
        <time>2012-08-24T11:39:03Z</time>
      </trkpt>
      <trkpt lat="42.80729" lon="-0.03204">
        <ele>1998.1</ele>
        <time>2012-08-24T11:38:52Z</time>
      </trkpt>
      <trkpt lat="42.80728" lon="-0.03204">
        <ele>1997.8</ele>
        <time>2012-08-24T11:38:51Z</time>
      </trkpt>
      <trkpt lat="42.80724" lon="-0.03199">
        <ele>1996</ele>
        <time>2012-08-24T11:38:33Z</time>
      </trkpt>
      <trkpt lat="42.80724" lon="-0.03199">
        <ele>1996</ele>
        <time>2012-08-24T11:38:24Z</time>
      </trkpt>
      <trkpt lat="42.80724" lon="-0.03199">
        <ele>1996</ele>
        <time>2012-08-24T11:38:12Z</time>
      </trkpt>
      <trkpt lat="42.80724" lon="-0.03199">
        <ele>1996</ele>
        <time>2012-08-24T11:38:10Z</time>
      </trkpt>
      <trkpt lat="42.80724" lon="-0.03199">
        <ele>1996</ele>
        <time>2012-08-24T11:38:05Z</time>
      </trkpt>
      <trkpt lat="42.80724" lon="-0.03199">
        <ele>1996</ele>
        <time>2012-08-24T11:38:03Z</time>
      </trkpt>
      <trkpt lat="42.80724" lon="-0.03198">
        <ele>1995.9</ele>
        <time>2012-08-24T11:38:02Z</time>
      </trkpt>
      <trkpt lat="42.80723" lon="-0.0319">
        <ele>1994.9</ele>
        <time>2012-08-24T11:37:51Z</time>
      </trkpt>
      <trkpt lat="42.80726" lon="-0.03186">
        <ele>1995.4</ele>
        <time>2012-08-24T11:37:45Z</time>
      </trkpt>
      <trkpt lat="42.80727" lon="-0.03181">
        <ele>1995.3</ele>
        <time>2012-08-24T11:37:31Z</time>
      </trkpt>
      <trkpt lat="42.80728" lon="-0.0318">
        <ele>1995.5</ele>
        <time>2012-08-24T11:37:30Z</time>
      </trkpt>
      <trkpt lat="42.80727" lon="-0.03178">
        <ele>1995</ele>
        <time>2012-08-24T11:37:28Z</time>
      </trkpt>
      <trkpt lat="42.80727" lon="-0.03178">
        <ele>1995</ele>
        <time>2012-08-24T11:37:14Z</time>
      </trkpt>
      <trkpt lat="42.80725" lon="-0.03174">
        <ele>1994.1</ele>
        <time>2012-08-24T11:36:56Z</time>
      </trkpt>
      <trkpt lat="42.80719" lon="-0.03173">
        <ele>1992.3</ele>
        <time>2012-08-24T11:36:37Z</time>
      </trkpt>
      <trkpt lat="42.80716" lon="-0.03161">
        <ele>1991.8</ele>
        <time>2012-08-24T11:36:21Z</time>
      </trkpt>
      <trkpt lat="42.80715" lon="-0.03151">
        <ele>1992.9</ele>
        <time>2012-08-24T11:36:13Z</time>
      </trkpt>
      <trkpt lat="42.80715" lon="-0.03145">
        <ele>1993.8</ele>
        <time>2012-08-24T11:36:08Z</time>
      </trkpt>
      <trkpt lat="42.80714" lon="-0.03142">
        <ele>1994</ele>
        <time>2012-08-24T11:36:05Z</time>
      </trkpt>
      <trkpt lat="42.80712" lon="-0.03135">
        <ele>1994.5</ele>
        <time>2012-08-24T11:35:59Z</time>
      </trkpt>
      <trkpt lat="42.80711" lon="-0.03133">
        <ele>1994.6</ele>
        <time>2012-08-24T11:35:57Z</time>
      </trkpt>
      <trkpt lat="42.80711" lon="-0.03133">
        <ele>1994.6</ele>
        <time>2012-08-24T11:35:56Z</time>
      </trkpt>
      <trkpt lat="42.80705" lon="-0.03127">
        <ele>1994.3</ele>
        <time>2012-08-24T11:35:46Z</time>
      </trkpt>
      <trkpt lat="42.80705" lon="-0.03117">
        <ele>1995.8</ele>
        <time>2012-08-24T11:35:32Z</time>
      </trkpt>
      <trkpt lat="42.80704" lon="-0.03114">
        <ele>1996.1</ele>
        <time>2012-08-24T11:35:27Z</time>
      </trkpt>
      <trkpt lat="42.80702" lon="-0.03111">
        <ele>1996.2</ele>
        <time>2012-08-24T11:35:24Z</time>
      </trkpt>
      <trkpt lat="42.80702" lon="-0.03108">
        <ele>1996.7</ele>
        <time>2012-08-24T11:35:22Z</time>
      </trkpt>
      <trkpt lat="42.80703" lon="-0.03107">
        <ele>1997</ele>
        <time>2012-08-24T11:35:21Z</time>
      </trkpt>
      <trkpt lat="42.80705" lon="-0.03103">
        <ele>1998</ele>
        <time>2012-08-24T11:35:16Z</time>
      </trkpt>
      <trkpt lat="42.80705" lon="-0.03102">
        <ele>1998.2</ele>
        <time>2012-08-24T11:35:14Z</time>
      </trkpt>
      <trkpt lat="42.80704" lon="-0.031">
        <ele>1998.3</ele>
        <time>2012-08-24T11:35:12Z</time>
      </trkpt>
      <trkpt lat="42.80703" lon="-0.03097">
        <ele>1998.6</ele>
        <time>2012-08-24T11:35:09Z</time>
      </trkpt>
      <trkpt lat="42.80703" lon="-0.03096">
        <ele>1998.8</ele>
        <time>2012-08-24T11:35:07Z</time>
      </trkpt>
      <trkpt lat="42.80701" lon="-0.03093">
        <ele>1999</ele>
        <time>2012-08-24T11:35:03Z</time>
      </trkpt>
      <trkpt lat="42.80698" lon="-0.03085">
        <ele>1999.9</ele>
        <time>2012-08-24T11:34:52Z</time>
      </trkpt>
      <trkpt lat="42.80701" lon="-0.03076">
        <ele>2002.2</ele>
        <time>2012-08-24T11:33:37Z</time>
      </trkpt>
      <trkpt lat="42.80701" lon="-0.03076">
        <ele>2002.2</ele>
        <time>2012-08-24T11:33:36Z</time>
      </trkpt>
      <trkpt lat="42.80701" lon="-0.03076">
        <ele>2002.2</ele>
        <time>2012-08-24T11:33:32Z</time>
      </trkpt>
      <trkpt lat="42.807" lon="-0.03073">
        <ele>2002.7</ele>
        <time>2012-08-24T11:33:18Z</time>
      </trkpt>
      <trkpt lat="42.807" lon="-0.03074">
        <ele>2002.4</ele>
        <time>2012-08-24T11:33:16Z</time>
      </trkpt>
      <trkpt lat="42.807" lon="-0.03074">
        <ele>2002.4</ele>
        <time>2012-08-24T11:33:03Z</time>
      </trkpt>
      <trkpt lat="42.807" lon="-0.03074">
        <ele>2002.4</ele>
        <time>2012-08-24T11:32:46Z</time>
      </trkpt>
      <trkpt lat="42.807" lon="-0.03074">
        <ele>2002.4</ele>
        <time>2012-08-24T11:32:28Z</time>
      </trkpt>
      <trkpt lat="42.807" lon="-0.03074">
        <ele>2002.4</ele>
        <time>2012-08-24T11:32:19Z</time>
      </trkpt>
      <trkpt lat="42.807" lon="-0.03074">
        <ele>2002.4</ele>
        <time>2012-08-24T11:32:17Z</time>
      </trkpt>
      <trkpt lat="42.80702" lon="-0.03076">
        <ele>2002.3</ele>
        <time>2012-08-24T11:32:10Z</time>
      </trkpt>
      <trkpt lat="42.80689" lon="-0.03066">
        <ele>2002.2</ele>
        <time>2012-08-24T11:31:48Z</time>
      </trkpt>
      <trkpt lat="42.80689" lon="-0.03066">
        <ele>2002.2</ele>
        <time>2012-08-24T11:31:48Z</time>
      </trkpt>
    </trkseg>
  </trk>
</gpx>